Time;durP1;ratioP1;P1;durP2;ratioP2;P2;SDS_P1;SDS_P2;PMS_P1;PMS_P2;Temp;Humidity;BMP_temperature;BMP_pressure;BME280_temperature;BME280_humidity;BME280_pressure;Samples;Min_cycle;Max_cycle;Signal;HPM_P1;HPM_P2
2024/01/22 00:01:51;;;;;;;48.40;14.57;;;;;;;;;;5845784;28;20041;-79
2024/01/22 00:04:42;;;;;;;41.78;14.80;;;;;;;;;;5863424;28;20412;-79
2024/01/22 00:07:32;;;;;;;35.72;13.80;;;;;;;;;;5861440;28;20055;-79
2024/01/22 00:10:23;;;;;;;31.70;12.82;;;;;;;;;;5861740;28;20414;-79
2024/01/22 00:13:15;;;;;;;33.60;14.43;;;;;;;;;;5862916;28;20052;-79
2024/01/22 00:16:06;;;;;;;27.27;11.27;;;;;;;;;;5861499;28;20446;-79
2024/01/22 00:18:57;;;;;;;34.15;12.57;;;;;;;;;;5863213;28;20050;-79
2024/01/22 00:21:48;;;;;;;18.65;8.55;;;;;;;;;;5861156;28;20122;-79
2024/01/22 00:24:40;;;;;;;26.33;10.95;;;;;;;;;;5861580;28;20045;-79
2024/01/22 00:27:31;;;;;;;27.50;11.10;;;;;;;;;;5861534;28;20045;-79
2024/01/22 00:30:21;;;;;;;27.17;10.20;;;;;;;;;;5861584;28;20048;-79
2024/01/22 00:33:12;;;;;;;35.67;10.60;;;;;;;;;;5845178;28;20143;-79
2024/01/22 00:36:03;;;;;;;80.10;20.75;;;;;;;;;;5862934;28;20419;-79
2024/01/22 00:38:54;;;;;;;54.90;19.10;;;;;;;;;;5862067;28;20052;-79
2024/01/22 00:41:45;;;;;;;25.92;11.82;;;;;;;;;;5861137;28;20487;-79
2024/01/22 00:44:36;;;;;;;33.05;10.88;;;;;;;;;;5861150;28;20074;-79
2024/01/22 00:47:27;;;;;;;27.23;10.35;;;;;;;;;;5861018;28;20045;-79
2024/01/22 00:50:18;;;;;;;25.02;11.65;;;;;;;;;;5861228;28;20144;-79
2024/01/22 00:53:09;;;;;;;20.10;10.70;;;;;;;;;;5877481;28;20064;-79
2024/01/22 00:55:59;;;;;;;27.63;12.25;;;;;;;;;;5861491;28;20522;-79
2024/01/22 00:58:50;;;;;;;28.17;12.73;;;;;;;;;;5860842;28;20053;-79
2024/01/22 01:01:41;;;;;;;46.00;12.45;;;;;;;;;;5861435;28;20526;-79
2024/01/22 01:04:32;;;;;;;22.02;8.77;;;;;;;;;;5869266;28;20121;-79
2024/01/22 01:07:23;;;;;;;25.75;11.93;;;;;;;;;;5860938;28;20140;-79
2024/01/22 01:10:14;;;;;;;27.45;10.88;;;;;;;;;;5860860;28;20450;-79
2024/01/22 01:13:05;;;;;;;20.67;9.85;;;;;;;;;;5862256;28;20049;-79
2024/01/22 01:15:56;;;;;;;21.08;10.07;;;;;;;;;;5861416;28;20503;-79
2024/01/22 01:18:47;;;;;;;28.60;9.30;;;;;;;;;;5862533;28;20072;-79
2024/01/22 01:21:39;;;;;;;30.73;10.38;;;;;;;;;;5865551;28;20064;-79
2024/01/22 01:24:30;;;;;;;21.20;10.20;;;;;;;;;;5865408;28;20038;-79
2024/01/22 01:27:20;;;;;;;20.30;9.77;;;;;;;;;;5865282;28;20053;-79
2024/01/22 01:30:11;;;;;;;22.23;9.27;;;;;;;;;;5866434;28;20129;-79
2024/01/22 01:33:02;;;;;;;23.35;9.65;;;;;;;;;;5865286;28;20095;-79
2024/01/22 01:35:53;;;;;;;31.17;10.13;;;;;;;;;;5865766;28;20045;-79
2024/01/22 01:38:44;;;;;;;24.27;10.30;;;;;;;;;;5865064;28;20060;-79
2024/01/22 01:41:35;;;;;;;21.02;8.90;;;;;;;;;;5848591;28;20041;-79
2024/01/22 01:44:51;;;;;;;18.83;8.73;;;;;;;;;;5864887;28;20049;-79
2024/01/22 01:47:49;;;;;;;17.05;7.95;;;;;;;;;;5864647;28;20124;-79
2024/01/22 01:50:40;;;;;;;33.93;10.20;;;;;;;;;;5865451;28;20510;-79
2024/01/22 01:53:33;;;;;;;24.27;10.50;;;;;;;;;;5881005;28;20296;-79
2024/01/22 01:56:23;;;;;;;25.80;9.85;;;;;;;;;;5864396;28;20042;-79
2024/01/22 01:59:14;;;;;;;22.25;9.70;;;;;;;;;;5864480;28;20049;-79
2024/01/22 02:02:05;;;;;;;26.27;9.45;;;;;;;;;;5864671;28;20415;-79
2024/01/22 02:04:56;;;;;;;16.83;8.23;;;;;;;;;;5865281;28;20045;-79
2024/01/22 02:07:47;;;;;;;15.77;6.93;;;;;;;;;;5880769;28;20501;-79
2024/01/22 02:10:38;;;;;;;16.75;8.43;;;;;;;;;;5864865;28;20133;-79
2024/01/22 02:13:29;;;;;;;31.40;10.00;;;;;;;;;;5880490;28;20056;-79
2024/01/22 02:16:20;;;;;;;32.67;10.82;;;;;;;;;;5864183;28;20373;-79
2024/01/22 02:19:11;;;;;;;21.95;7.57;;;;;;;;;;5864203;28;20041;-79
2024/01/22 02:22:01;;;;;;;12.73;6.78;;;;;;;;;;5864205;28;20046;-79
2024/01/22 02:24:52;;;;;;;14.32;7.80;;;;;;;;;;5864381;28;20048;-79
2024/01/22 02:27:44;;;;;;;16.55;7.78;;;;;;;;;;5863852;28;20088;-79
2024/01/22 02:30:35;;;;;;;19.40;8.07;;;;;;;;;;5864568;28;20388;-79
2024/01/22 02:33:25;;;;;;;23.70;9.63;;;;;;;;;;5863464;28;20050;-79
2024/01/22 02:36:17;;;;;;;23.55;8.85;;;;;;;;;;5865025;28;20163;-79
2024/01/22 02:39:08;;;;;;;19.05;8.75;;;;;;;;;;5863934;28;20049;-79
2024/01/22 02:41:59;;;;;;;15.05;8.10;;;;;;;;;;5865613;28;20042;-79
2024/01/22 02:44:49;;;;;;;18.25;7.82;;;;;;;;;;5864372;28;20448;-79
2024/01/22 02:47:40;;;;;;;23.85;10.23;;;;;;;;;;5863640;28;20044;-79
2024/01/22 02:50:31;;;;;;;27.65;10.25;;;;;;;;;;5863814;28;20050;-79
2024/01/22 02:53:22;;;;;;;19.35;7.03;;;;;;;;;;5863616;28;20056;-79
2024/01/22 02:56:20;;;;;;;30.40;9.43;;;;;;;;;;5863491;28;20049;-79
2024/01/22 02:59:11;;;;;;;34.33;10.75;;;;;;;;;;5879889;28;20052;-78
2024/01/22 03:02:03;;;;;;;24.05;11.05;;;;;;;;;;5863731;28;20045;-79
2024/01/22 03:04:54;;;;;;;32.55;9.80;;;;;;;;;;5863993;28;20515;-78
2024/01/22 03:07:45;;;;;;;31.13;10.27;;;;;;;;;;5863038;28;20081;-78
2024/01/22 03:10:36;;;;;;;19.17;7.75;;;;;;;;;;5863147;28;20045;-79
2024/01/22 03:13:27;;;;;;;20.30;9.75;;;;;;;;;;5863130;28;20045;-78
2024/01/22 03:16:18;;;;;;;20.30;8.82;;;;;;;;;;5862983;28;20573;-79
2024/01/22 03:19:08;;;;;;;18.83;8.27;;;;;;;;;;5879489;28;20053;-78
2024/01/22 03:21:59;;;;;;;27.48;9.43;;;;;;;;;;5863250;28;20061;-78
2024/01/22 03:24:50;;;;;;;23.48;10.15;;;;;;;;;;5862972;28;20464;-78
2024/01/22 03:27:41;;;;;;;14.95;8.65;;;;;;;;;;5862542;28;20053;-79
2024/01/22 03:30:32;;;;;;;21.55;8.77;;;;;;;;;;5862661;28;20053;-78
2024/01/22 03:33:23;;;;;;;20.05;8.68;;;;;;;;;;5863730;28;20047;-78
2024/01/22 03:36:14;;;;;;;19.23;9.00;;;;;;;;;;5863685;28;20046;-78
2024/01/22 03:39:05;;;;;;;28.33;9.00;;;;;;;;;;5862615;28;20102;-78
2024/01/22 03:41:56;;;;;;;22.17;7.82;;;;;;;;;;5861780;28;20053;-78
2024/01/22 03:44:46;;;;;;;16.50;8.55;;;;;;;;;;5862677;28;20042;-78
2024/01/22 03:47:37;;;;;;;33.25;8.10;;;;;;;;;;5862314;28;20601;-78
2024/01/22 03:50:28;;;;;;;22.10;9.52;;;;;;;;;;5862420;28;20046;-78
2024/01/22 03:53:20;;;;;;;21.70;8.85;;;;;;;;;;5862148;28;20049;-78
2024/01/22 03:56:10;;;;;;;29.20;7.68;;;;;;;;;;5863800;28;20045;-78
2024/01/22 03:59:01;;;;;;;24.45;10.20;;;;;;;;;;5863278;28;20527;-78
2024/01/22 04:01:55;;;;;;;28.67;10.18;;;;;;;;;;5862583;28;20433;-78
2024/01/22 04:04:45;;;;;;;35.90;9.88;;;;;;;;;;5861968;28;20048;-78
2024/01/22 04:07:37;;;;;;;22.77;9.20;;;;;;;;;;5862348;28;20049;-78
2024/01/22 04:10:27;;;;;;;39.15;10.00;;;;;;;;;;5862010;28;20053;-78
2024/01/22 04:13:18;;;;;;;25.35;9.73;;;;;;;;;;5861854;28;20062;-78
2024/01/22 04:16:13;;;;;;;35.08;10.57;;;;;;;;;;5861714;28;20503;-78
2024/01/22 04:19:04;;;;;;;28.27;12.32;;;;;;;;;;5878210;28;20053;-78
2024/01/22 04:21:55;;;;;;;41.58;10.95;;;;;;;;;;5862140;28;20057;-78
2024/01/22 04:24:45;;;;;;;30.23;12.77;;;;;;;;;;5861558;28;20049;-78
2024/01/22 04:27:36;;;;;;;25.05;10.75;;;;;;;;;;5861522;28;20054;-78
2024/01/22 04:30:27;;;;;;;34.55;12.77;;;;;;;;;;5845293;28;20053;-78
2024/01/22 04:33:18;;;;;;;25.88;9.00;;;;;;;;;;5861396;28;20072;-79
2024/01/22 04:36:09;;;;;;;31.00;11.95;;;;;;;;;;5861311;28;20053;-78
2024/01/22 04:39:00;;;;;;;28.05;11.10;;;;;;;;;;5878206;28;20045;-78
2024/01/22 04:41:51;;;;;;;29.77;10.48;;;;;;;;;;5861368;28;20037;-78
2024/01/22 04:44:42;;;;;;;18.80;8.23;;;;;;;;;;5860855;28;20037;-78
2024/01/22 04:47:33;;;;;;;33.80;10.48;;;;;;;;;;5861174;28;20045;-78
2024/01/22 04:50:24;;;;;;;27.67;10.77;;;;;;;;;;5861005;28;20045;-78
2024/01/22 04:53:15;;;;;;;23.25;8.05;;;;;;;;;;5861071;28;20061;-78
2024/01/22 04:56:06;;;;;;;30.55;10.55;;;;;;;;;;5862370;28;20515;-78
2024/01/22 04:58:56;;;;;;;24.17;10.93;;;;;;;;;;5862900;28;20099;-78
2024/01/22 05:01:47;;;;;;;23.65;9.88;;;;;;;;;;5861209;28;20052;-78
2024/01/22 05:04:38;;;;;;;28.35;9.77;;;;;;;;;;5861296;28;20037;-78
2024/01/22 05:07:29;;;;;;;26.90;10.23;;;;;;;;;;5862203;28;20041;-78
2024/01/22 05:10:20;;;;;;;13.73;9.70;;;;;;;;;;5861026;28;20400;-78
2024/01/22 05:13:11;;;;;;;26.70;9.05;;;;;;;;;;5862378;28;20107;-78
2024/01/22 05:16:01;;;;;;;26.90;9.15;;;;;;;;;;5860822;28;20526;-78
2024/01/22 05:18:53;;;;;;;25.02;10.13;;;;;;;;;;5861056;28;20052;-78
2024/01/22 05:21:44;;;;;;;27.45;8.57;;;;;;;;;;5860891;28;20096;-78
2024/01/22 05:24:35;;;;;;;20.90;8.20;;;;;;;;;;5861285;28;20122;-78
2024/01/22 05:27:26;;;;;;;20.35;9.43;;;;;;;;;;5861097;28;20379;-78
2024/01/22 05:30:17;;;;;;;20.77;8.10;;;;;;;;;;5877306;28;20068;-78
2024/01/22 05:33:08;;;;;;;22.40;9.43;;;;;;;;;;5860566;28;20088;-78
2024/01/22 05:35:59;;;;;;;38.20;10.23;;;;;;;;;;5861137;28;20049;-78
2024/01/22 05:38:50;;;;;;;25.90;8.98;;;;;;;;;;5861068;28;20041;-78
2024/01/22 05:41:41;;;;;;;28.08;8.13;;;;;;;;;;5860663;28;20060;-78
2024/01/22 05:44:32;;;;;;;26.02;9.23;;;;;;;;;;5861027;28;20042;-78
2024/01/22 05:47:23;;;;;;;18.88;7.70;;;;;;;;;;5861713;28;20046;-78
2024/01/22 05:50:14;;;;;;;26.90;9.57;;;;;;;;;;5860819;28;20050;-78
2024/01/22 05:53:05;;;;;;;27.23;11.50;;;;;;;;;;5860466;28;20045;-78
2024/01/22 05:55:55;;;;;;;19.77;9.60;;;;;;;;;;5860700;28;20045;-78
2024/01/22 05:58:46;;;;;;;24.75;9.77;;;;;;;;;;5861617;28;20048;-78
2024/01/22 06:01:37;;;;;;;22.33;10.07;;;;;;;;;;5860229;28;20064;-78
2024/01/22 06:04:28;;;;;;;23.33;10.38;;;;;;;;;;5861444;28;20045;-78
2024/01/22 06:07:18;;;;;;;31.50;10.77;;;;;;;;;;5864224;28;20403;-78
2024/01/22 06:10:09;;;;;;;31.33;10.30;;;;;;;;;;5864607;28;20135;-78
2024/01/22 06:13:01;;;;;;;27.38;10.52;;;;;;;;;;5864848;28;20064;-78
2024/01/22 06:15:51;;;;;;;24.13;8.88;;;;;;;;;;5864223;28;20045;-78
2024/01/22 06:18:45;;;;;;;14.95;6.63;;;;;;;;;;5863880;28;20049;-78
2024/01/22 06:21:36;;;;;;;29.42;11.48;;;;;;;;;;5864251;28;20129;-78
2024/01/22 06:24:27;;;;;;;28.00;10.07;;;;;;;;;;5864365;28;20041;-79
2024/01/22 06:27:18;;;;;;;30.05;11.30;;;;;;;;;;5864270;28;20077;-79
2024/01/22 06:30:09;;;;;;;27.55;10.77;;;;;;;;;;5863997;28;20053;-78
2024/01/22 06:33:00;;;;;;;23.83;9.75;;;;;;;;;;5864496;28;20045;-78
2024/01/22 06:35:51;;;;;;;26.00;8.73;;;;;;;;;;5865509;28;20037;-78
2024/01/22 06:38:42;;;;;;;21.05;11.27;;;;;;;;;;5866273;28;20054;-79
2024/01/22 06:41:33;;;;;;;20.13;10.43;;;;;;;;;;5865262;28;20050;-79
2024/01/22 06:44:24;;;;;;;30.27;10.20;;;;;;;;;;5866627;28;20046;-80
2024/01/22 06:47:15;;;;;;;23.20;8.93;;;;;;;;;;5864350;28;20055;-80
2024/01/22 06:50:06;;;;;;;18.27;10.63;;;;;;;;;;5863796;28;20044;-80
2024/01/22 06:52:57;;;;;;;24.52;9.85;;;;;;;;;;5864060;28;20056;-80
2024/01/22 06:55:48;;;;;;;36.80;12.25;;;;;;;;;;5863274;28;20044;-79
2024/01/22 06:58:40;;;;;;;29.88;11.48;;;;;;;;;;5863347;28;20038;-80
2024/01/22 07:01:31;;;;;;;23.45;9.75;;;;;;;;;;5864650;28;20052;-79
2024/01/22 07:04:21;;;;;;;33.13;10.05;;;;;;;;;;5863152;28;20049;-80
2024/01/22 07:07:13;;;;;;;20.80;8.80;;;;;;;;;;5863202;28;20053;-80
2024/01/22 07:10:06;;;;;;;28.15;9.00;;;;;;;;;;5863528;28;20037;-80
2024/01/22 07:12:56;;;;;;;18.30;5.53;;;;;;;;;;5880192;28;20053;-79
2024/01/22 07:15:47;;;;;;;13.50;7.53;;;;;;;;;;5864522;28;20053;-79
2024/01/22 07:18:38;;;;;;;8.02;5.03;;;;;;;;;;5863018;28;20041;-79
2024/01/22 07:21:29;;;;;;;15.95;6.97;;;;;;;;;;5862851;28;20045;-78
2024/01/22 07:24:20;;;;;;;16.70;5.88;;;;;;;;;;5862808;28;20423;-78
2024/01/22 07:27:11;;;;;;;27.13;8.25;;;;;;;;;;5862811;28;20515;-78
2024/01/22 07:30:07;;;;;;;19.88;7.03;;;;;;;;;;5863838;28;20049;-78
2024/01/22 07:32:58;;;;;;;21.73;8.38;;;;;;;;;;5864195;28;20076;-78
2024/01/22 07:35:49;;;;;;;15.30;6.75;;;;;;;;;;5864128;28;20049;-78
2024/01/22 07:38:40;;;;;;;21.52;8.60;;;;;;;;;;5862791;28;20470;-78
2024/01/22 07:41:31;;;;;;;14.23;7.50;;;;;;;;;;5862891;28;20065;-78
2024/01/22 07:44:22;;;;;;;17.52;7.28;;;;;;;;;;5862773;28;20047;-78
2024/01/22 07:47:13;;;;;;;10.18;4.68;;;;;;;;;;5863907;28;20404;-79
2024/01/22 07:50:10;;;;;;;13.15;4.63;;;;;;;;;;5863704;28;20053;-78
2024/01/22 07:53:02;;;;;;;17.00;7.60;;;;;;;;;;5863885;28;20075;-79
2024/01/22 07:55:53;;;;;;;17.35;4.78;;;;;;;;;;5862891;28;20052;-79
2024/01/22 07:58:44;;;;;;;6.32;3.50;;;;;;;;;;5862311;28;20045;-79
2024/01/22 08:01:35;;;;;;;19.40;6.78;;;;;;;;;;5862314;28;20836;-79
2024/01/22 08:04:26;;;;;;;11.77;4.82;;;;;;;;;;5862246;28;20041;-79
2024/01/22 08:07:19;;;;;;;10.93;4.80;;;;;;;;;;5862221;28;20053;-79
2024/01/22 08:10:12;;;;;;;12.13;4.10;;;;;;;;;;5862257;28;20499;-80
2024/01/22 08:13:03;;;;;;;5.93;4.45;;;;;;;;;;5863479;28;20065;-80
2024/01/22 08:15:54;;;;;;;15.45;3.78;;;;;;;;;;5862569;28;20053;-80
2024/01/22 08:18:45;;;;;;;13.75;4.97;;;;;;;;;;5878398;28;20042;-80
2024/01/22 08:21:36;;;;;;;9.45;4.53;;;;;;;;;;5863384;28;20471;-80
2024/01/22 08:24:26;;;;;;;9.88;4.68;;;;;;;;;;5861744;28;20041;-80
2024/01/22 08:27:17;;;;;;;15.05;5.28;;;;;;;;;;5861497;28;20053;-81
2024/01/22 08:30:09;;;;;;;9.20;4.60;;;;;;;;;;5863039;28;20049;-80
2024/01/22 08:33:00;;;;;;;12.18;5.32;;;;;;;;;;5862520;28;20454;-81
2024/01/22 08:35:51;;;;;;;15.13;7.80;;;;;;;;;;5862999;28;20419;-81
2024/01/22 08:38:42;;;;;;;15.60;6.78;;;;;;;;;;5862880;28;20042;-81
2024/01/22 08:41:32;;;;;;;11.88;6.32;;;;;;;;;;5861824;28;20041;-81
2024/01/22 08:44:23;;;;;;;12.93;6.03;;;;;;;;;;5862617;28;20045;-81
2024/01/22 08:47:14;;;;;;;20.15;7.57;;;;;;;;;;5861368;28;20404;-81
2024/01/22 08:50:05;;;;;;;19.52;7.88;;;;;;;;;;5861701;28;20049;-81
2024/01/22 08:52:56;;;;;;;24.00;8.43;;;;;;;;;;5862202;28;20419;-82
2024/01/22 08:55:47;;;;;;;18.10;7.43;;;;;;;;;;5862927;28;20064;-82
2024/01/22 08:58:39;;;;;;;23.05;6.07;;;;;;;;;;5862946;28;20125;-82
2024/01/22 09:01:29;;;;;;;23.25;7.90;;;;;;;;;;5862836;28;20046;-82
2024/01/22 09:04:20;;;;;;;18.77;7.30;;;;;;;;;;5862779;28;20060;-83
2024/01/22 09:07:11;;;;;;;11.20;7.00;;;;;;;;;;5861661;28;20053;-82
2024/01/22 09:10:06;;;;;;;11.50;4.95;;;;;;;;;;5861519;28;20053;-82
2024/01/22 09:12:57;;;;;;;13.82;5.35;;;;;;;;;;5861994;28;20099;-83
2024/01/22 09:15:48;;;;;;;7.93;4.60;;;;;;;;;;5860906;28;20053;-83
2024/01/22 09:18:39;;;;;;;16.48;7.47;;;;;;;;;;5862356;28;20053;-83
2024/01/22 09:21:30;;;;;;;8.25;4.28;;;;;;;;;;5862501;28;20411;-83
2024/01/22 09:24:20;;;;;;;8.45;4.40;;;;;;;;;;5860627;28;20071;-83
2024/01/22 09:27:11;;;;;;;5.72;4.53;;;;;;;;;;5860879;28;20052;-83
2024/01/22 09:30:03;;;;;;;4.55;4.10;;;;;;;;;;5860896;28;20053;-82
2024/01/22 09:32:57;;;;;;;7.63;4.32;;;;;;;;;;5861232;28;20056;-83
2024/01/22 09:35:48;;;;;;;14.70;7.28;;;;;;;;;;5861376;28;20116;-82
2024/01/22 09:38:40;;;;;;;19.88;6.70;;;;;;;;;;5860797;28;20049;-82
2024/01/22 09:41:32;;;;;;;19.05;9.13;;;;;;;;;;5866141;28;20053;-81
2024/01/22 09:44:24;;;;;;;10.07;5.43;;;;;;;;;;5864996;28;20045;-82
2024/01/22 09:47:15;;;;;;;9.75;6.40;;;;;;;;;;5864984;28;20430;-81
2024/01/22 09:50:07;;;;;;;8.38;6.68;;;;;;;;;;5865280;28;20052;-81
2024/01/22 09:53:08;;;;;;;6.68;5.32;;;;;;;;;;5867016;28;20048;-81
2024/01/22 09:56:00;;;;;;;7.40;5.05;;;;;;;;;;5880950;28;20041;-81
2024/01/22 09:58:57;;;;;;;10.80;4.75;;;;;;;;;;5865473;28;20530;-81
2024/01/22 10:01:50;;;;;;;7.95;6.22;;;;;;;;;;5864949;28;20045;-81
2024/01/22 10:04:43;;;;;;;10.35;5.35;;;;;;;;;;5864886;28;20050;-81
2024/01/22 10:07:34;;;;;;;8.02;6.05;;;;;;;;;;5865413;28;20049;-82
2024/01/22 10:10:26;;;;;;;16.35;12.45;;;;;;;;;;5864839;28;20049;-81
2024/01/22 10:13:17;;;;;;;18.92;9.48;;;;;;;;;;5864439;28;20068;-81
2024/01/22 10:16:12;;;;;;;17.08;10.77;;;;;;;;;;5865808;28;20049;-82
2024/01/22 10:19:09;;;;;;;6.75;5.80;;;;;;;;;;5864204;28;20046;-82
2024/01/22 10:22:03;;;;;;;6.78;5.80;;;;;;;;;;5880883;28;20416;-82
2024/01/22 10:25:01;;;;;;;9.65;5.70;;;;;;;;;;5881239;28;20037;-82
2024/01/22 10:28:17;;;;;;;5.80;5.20;;;;;;;;;;5880787;28;20053;-82
2024/01/22 10:31:11;;;;;;;16.73;8.15;;;;;;;;;;5864346;28;20148;-81
2024/01/22 10:34:04;;;;;;;8.88;4.60;;;;;;;;;;5864222;28;20049;-81
2024/01/22 10:37:07;;;;;;;6.25;5.57;;;;;;;;;;5865950;28;20049;-82
2024/01/22 10:40:03;;;;;;;8.05;4.65;;;;;;;;;;5863766;28;20524;-82
2024/01/22 10:42:54;;;;;;;5.10;4.45;;;;;;;;;;5863697;28;20522;-81
2024/01/22 10:45:47;;;;;;;5.50;4.10;;;;;;;;;;5865209;28;20434;-82
2024/01/22 10:48:42;;;;;;;5.68;3.85;;;;;;;;;;5880217;28;20041;-82
2024/01/22 10:51:38;;;;;;;8.00;5.68;;;;;;;;;;5863707;28;20599;-81
2024/01/22 10:54:34;;;;;;;11.13;5.32;;;;;;;;;;5863781;28;20672;-82
2024/01/22 10:57:41;;;;;;;12.13;5.63;;;;;;;;;;5880254;28;20060;-81
2024/01/22 11:00:32;;;;;;;10.98;5.50;;;;;;;;;;5864093;28;20045;-83
2024/01/22 11:03:27;;;;;;;12.80;5.82;;;;;;;;;;5863761;28;20408;-83
2024/01/22 11:06:27;;;;;;;12.20;6.80;;;;;;;;;;5863699;28;20423;-82
2024/01/22 11:09:19;;;;;;;11.45;3.60;;;;;;;;;;5863820;28;20396;-82
2024/01/22 11:12:12;;;;;;;6.25;4.55;;;;;;;;;;5863531;28;20111;-80
2024/01/22 11:15:04;;;;;;;7.25;5.38;;;;;;;;;;5864859;28;20053;-82
2024/01/22 11:17:55;;;;;;;3.88;3.33;;;;;;;;;;5865018;28;20053;-83
2024/01/22 11:20:46;;;;;;;7.75;3.92;;;;;;;;;;5863142;28;20056;-82
2024/01/22 11:23:37;;;;;;;13.57;5.05;;;;;;;;;;5863061;28;20099;-82
2024/01/22 11:26:31;;;;;;;11.20;6.38;;;;;;;;;;5863165;28;20056;-83
2024/01/22 11:29:26;;;;;;;7.10;5.55;;;;;;;;;;5862630;28;20048;-82
2024/01/22 11:32:27;;;;;;;9.85;4.85;;;;;;;;;;5879326;28;20396;-81
2024/01/22 11:35:37;;;;;;;2.80;1.83;;;;;;;;;;5863381;28;20051;-84
2024/01/22 11:38:50;;;;;;;2.83;2.58;;;;;;;;;;5863352;28;20037;-83
2024/01/22 11:41:41;;;;;;;7.70;3.88;;;;;;;;;;5862890;28;20049;-81
2024/01/22 11:44:40;;;;;;;5.88;4.85;;;;;;;;;;5864302;28;20483;-83
2024/01/22 11:47:32;;;;;;;24.35;11.73;;;;;;;;;;5862825;28;20041;-84
2024/01/22 11:50:23;;;;;;;5.18;4.07;;;;;;;;;;5879046;28;20051;-83
2024/01/22 11:53:14;;;;;;;4.80;3.28;;;;;;;;;;5862510;28;20115;-83
2024/01/22 11:56:06;;;;;;;3.42;2.22;;;;;;;;;;5862102;28;20462;-83
2024/01/22 11:59:04;;;;;;;13.05;3.90;;;;;;;;;;5863879;28;20156;-82
2024/01/22 12:02:25;;;;;;;6.85;2.80;;;;;;;;;;5861404;28;20091;-84
2024/01/22 12:05:19;;;;;;;8.93;4.55;;;;;;;;;;5850435;28;20138;-82
2024/01/22 12:08:11;;;;;;;4.50;2.50;;;;;;;;;;5877494;28;20057;-84
2024/01/22 12:11:12;;;;;;;3.15;2.75;;;;;;;;;;5861976;28;20479;-84
2024/01/22 12:14:03;;;;;;;2.45;2.22;;;;;;;;;;5861612;28;20056;-83
2024/01/22 12:17:03;;;;;;;2.40;1.88;;;;;;;;;;5862221;28;20045;-83
2024/01/22 12:19:55;;;;;;;2.90;2.67;;;;;;;;;;5861980;28;20037;-84
2024/01/22 12:23:01;;;;;;;4.68;2.40;;;;;;;;;;5861819;28;20734;-84
2024/01/22 12:25:53;;;;;;;6.07;2.55;;;;;;;;;;5863094;28;20052;-83
2024/01/22 12:28:52;;;;;;;3.70;1.98;;;;;;;;;;5877017;28;20072;-83
2024/01/22 12:31:43;;;;;;;6.95;3.05;;;;;;;;;;5861398;28;20045;-84
2024/01/22 12:34:34;;;;;;;6.13;4.22;;;;;;;;;;5861295;28;20430;-83
2024/01/22 12:37:34;;;;;;;7.28;4.68;;;;;;;;;;5877818;28;20085;-84
2024/01/22 12:40:25;;;;;;;4.93;2.72;;;;;;;;;;5861546;28;20159;-81
2024/01/22 12:43:16;;;;;;;6.97;4.30;;;;;;;;;;5861210;28;20080;-82
2024/01/22 12:46:14;;;;;;;1.90;1.52;;;;;;;;;;5861536;28;20136;-83
2024/01/22 12:49:05;;;;;;;6.63;2.70;;;;;;;;;;5862443;28;20045;-83
2024/01/22 12:51:56;;;;;;;2.08;1.02;;;;;;;;;;5861890;28;20049;-82
2024/01/22 12:54:47;;;;;;;5.72;1.90;;;;;;;;;;5861439;28;20115;-83
2024/01/22 12:57:38;;;;;;;15.85;3.25;;;;;;;;;;5861621;28;20090;-82
2024/01/22 13:00:31;;;;;;;3.90;2.38;;;;;;;;;;5861595;28;20059;-84
2024/01/22 13:03:22;;;;;;;3.28;2.20;;;;;;;;;;5862532;28;20068;-84
2024/01/22 13:06:13;;;;;;;1.30;1.20;;;;;;;;;;5862572;28;20050;-82
2024/01/22 13:09:03;;;;;;;4.72;2.50;;;;;;;;;;5862268;28;20192;-83
2024/01/22 13:11:54;;;;;;;3.70;2.25;;;;;;;;;;5861541;28;20048;-81
2024/01/22 13:14:45;;;;;;;2.03;1.70;;;;;;;;;;5864740;28;20041;-84
2024/01/22 13:17:36;;;;;;;2.50;1.48;;;;;;;;;;5866034;28;20440;-83
2024/01/22 13:20:27;;;;;;;10.13;2.92;;;;;;;;;;5865968;28;20052;-83
2024/01/22 13:23:18;;;;;;;4.25;3.28;;;;;;;;;;5865518;28;20136;-81
2024/01/22 13:26:09;;;;;;;3.53;1.58;;;;;;;;;;5882493;28;20045;-82
2024/01/22 13:29:00;;;;;;;1.83;1.67;;;;;;;;;;5882814;28;20046;-85
2024/01/22 13:31:51;;;;;;;3.83;2.75;;;;;;;;;;5865546;28;20079;-82
2024/01/22 13:34:42;;;;;;;6.57;5.07;;;;;;;;;;5881466;28;20044;-85
2024/01/22 13:37:34;;;;;;;3.92;2.30;;;;;;;;;;5865227;28;20119;-84
2024/01/22 13:40:24;;;;;;;5.03;2.75;;;;;;;;;;5865386;28;20071;-82
2024/01/22 13:43:15;;;;;;;6.38;3.08;;;;;;;;;;5864898;28;20042;-84
2024/01/22 13:46:07;;;;;;;9.05;3.88;;;;;;;;;;5865012;28;20419;-82
2024/01/22 13:48:58;;;;;;;8.85;6.65;;;;;;;;;;5866875;28;20538;-84
2024/01/22 13:51:49;;;;;;;7.55;5.60;;;;;;;;;;5865002;28;20450;-82
2024/01/22 13:54:46;;;;;;;13.05;7.72;;;;;;;;;;5866345;28;20132;-82
2024/01/22 13:57:37;;;;;;;9.10;3.83;;;;;;;;;;5865037;28;20041;-82
2024/01/22 14:00:28;;;;;;;6.78;3.58;;;;;;;;;;5866074;28;20411;-82
2024/01/22 14:03:18;;;;;;;8.23;5.47;;;;;;;;;;5880950;28;20057;-84
2024/01/22 14:06:09;;;;;;;6.70;4.10;;;;;;;;;;5864707;28;20426;-83
2024/01/22 14:09:00;;;;;;;8.23;5.47;;;;;;;;;;5865254;28;20392;-83
2024/01/22 14:11:51;;;;;;;10.18;5.10;;;;;;;;;;5881207;28;20140;-84
2024/01/22 14:14:42;;;;;;;6.22;4.22;;;;;;;;;;5864636;28;20069;-85
2024/01/22 14:17:33;;;;;;;10.23;5.85;;;;;;;;;;5864559;28;20442;-85
2024/01/22 14:20:25;;;;;;;6.80;3.00;;;;;;;;;;5864418;28;20049;-84
2024/01/22 14:23:16;;;;;;;3.47;3.05;;;;;;;;;;5864191;28;20046;-84
2024/01/22 14:26:08;;;;;;;5.80;2.95;;;;;;;;;;5863604;28;20183;-84
2024/01/22 14:28:59;;;;;;;13.93;3.60;;;;;;;;;;5866170;28;20053;-82
2024/01/22 14:31:50;;;;;;;5.90;2.65;;;;;;;;;;5865681;28;20049;-81
2024/01/22 14:34:41;;;;;;;3.30;2.50;;;;;;;;;;5865204;28;20124;-83
2024/01/22 14:37:32;;;;;;;6.10;2.92;;;;;;;;;;5865161;28;20076;-84
2024/01/22 14:40:23;;;;;;;3.80;2.47;;;;;;;;;;5863598;28;20416;-84
2024/01/22 14:43:14;;;;;;;3.92;1.63;;;;;;;;;;5863534;28;20515;-83
2024/01/22 14:46:07;;;;;;;5.85;3.42;;;;;;;;;;5865345;28;20068;-84
2024/01/22 14:48:58;;;;;;;4.28;2.65;;;;;;;;;;5864038;28;20053;-84
2024/01/22 14:51:59;;;;;;;6.30;4.22;;;;;;;;;;5863937;28;20038;-84
2024/01/22 14:54:50;;;;;;;7.63;2.38;;;;;;;;;;5865175;28;20419;-84
2024/01/22 14:57:40;;;;;;;1.92;1.55;;;;;;;;;;5864896;28;20045;-83
2024/01/22 15:00:35;;;;;;;2.38;1.85;;;;;;;;;;5863630;28;20060;-84
2024/01/22 15:03:25;;;;;;;6.50;3.10;;;;;;;;;;5863739;28;20410;-82
2024/01/22 15:06:17;;;;;;;8.10;3.40;;;;;;;;;;5879754;28;20083;-82
2024/01/22 15:09:12;;;;;;;11.35;3.40;;;;;;;;;;5863534;28;20060;-82
2024/01/22 15:12:04;;;;;;;5.03;3.53;;;;;;;;;;5863681;28;20175;-80
2024/01/22 15:14:56;;;;;;;6.53;4.53;;;;;;;;;;5864064;28;20144;-84
2024/01/22 15:17:47;;;;;;;9.45;4.63;;;;;;;;;;5864267;28;20048;-83
2024/01/22 15:20:38;;;;;;;5.82;3.97;;;;;;;;;;5863366;28;20120;-83
2024/01/22 15:23:29;;;;;;;5.22;2.92;;;;;;;;;;5863054;28;20119;-81
2024/01/22 15:26:22;;;;;;;3.60;3.30;;;;;;;;;;5862994;28;20050;-83
2024/01/22 15:29:14;;;;;;;4.22;2.90;;;;;;;;;;5862958;28;20052;-84
2024/01/22 15:32:05;;;;;;;4.22;3.80;;;;;;;;;;5863604;28;20041;-84
2024/01/22 15:34:56;;;;;;;3.50;2.50;;;;;;;;;;5864542;28;20068;-82
2024/01/22 15:37:47;;;;;;;8.80;4.28;;;;;;;;;;5861625;28;20037;-82
2024/01/22 15:40:38;;;;;;;7.20;3.55;;;;;;;;;;5879551;28;20041;-84
2024/01/22 15:43:29;;;;;;;10.35;4.68;;;;;;;;;;5863898;28;20048;-84
2024/01/22 15:46:20;;;;;;;13.52;7.03;;;;;;;;;;5862600;28;20397;-83
2024/01/22 15:49:12;;;;;;;9.07;5.65;;;;;;;;;;5862549;28;20050;-83
2024/01/22 15:52:03;;;;;;;18.60;4.40;;;;;;;;;;5862246;28;20053;-83
2024/01/22 15:54:54;;;;;;;12.63;8.32;;;;;;;;;;5862726;28;20037;-84
2024/01/22 15:57:45;;;;;;;13.25;8.98;;;;;;;;;;5862079;28;20045;-84
2024/01/22 16:00:36;;;;;;;7.90;4.65;;;;;;;;;;5862269;28;20353;-84
2024/01/22 16:03:27;;;;;;;6.72;4.80;;;;;;;;;;5861921;28;20045;-84
2024/01/22 16:06:22;;;;;;;10.20;7.00;;;;;;;;;;5878685;28;20068;-84
2024/01/22 16:09:13;;;;;;;5.97;4.38;;;;;;;;;;5862400;28;20073;-83
2024/01/22 16:12:04;;;;;;;14.23;6.15;;;;;;;;;;5862267;28;20049;-83
2024/01/22 16:14:55;;;;;;;7.25;5.75;;;;;;;;;;5863800;28;20055;-83
2024/01/22 16:17:47;;;;;;;8.48;6.63;;;;;;;;;;5878200;28;20041;-84
2024/01/22 16:20:38;;;;;;;6.35;4.10;;;;;;;;;;5863154;28;20365;-83
2024/01/22 16:23:29;;;;;;;7.00;5.43;;;;;;;;;;5861798;28;20042;-83
2024/01/22 16:26:20;;;;;;;9.05;4.97;;;;;;;;;;5861570;28;20051;-84
2024/01/22 16:29:11;;;;;;;11.10;6.22;;;;;;;;;;5862889;28;20122;-84
2024/01/22 16:32:02;;;;;;;10.63;5.70;;;;;;;;;;5861698;28;20049;-83
2024/01/22 16:34:54;;;;;;;12.48;8.00;;;;;;;;;;5862055;28;20069;-83
2024/01/22 16:37:45;;;;;;;17.92;7.65;;;;;;;;;;5862669;28;20046;-84
2024/01/22 16:40:36;;;;;;;11.88;10.38;;;;;;;;;;5862526;28;20042;-84
2024/01/22 16:43:27;;;;;;;16.17;8.30;;;;;;;;;;5877967;28;20041;-83
2024/01/22 16:46:19;;;;;;;9.88;6.57;;;;;;;;;;5862021;28;20439;-81
2024/01/22 16:49:10;;;;;;;3.13;2.40;;;;;;;;;;5862283;28;20064;-82
2024/01/22 16:52:03;;;;;;;3.78;2.15;;;;;;;;;;5861206;28;20057;-81
2024/01/22 16:54:54;;;;;;;9.60;5.15;;;;;;;;;;5862881;28;20491;-82
2024/01/22 16:57:45;;;;;;;21.35;13.35;;;;;;;;;;5860905;28;20113;-83